Time;durP1;ratioP1;P1;durP2;ratioP2;P2;SDS_P1;SDS_P2;PMS_P1;PMS_P2;Temp;Humidity;BMP_temperature;BMP_pressure;BME280_temperature;BME280_humidity;BME280_pressure;Samples;Min_cycle;Max_cycle;Signal;HPM_P1;HPM_P2
2022/04/09 00:02:05;;;;;;;2.45;1.33;;;14.60;60.60;;;;;;5052972;28;20397;-70
2022/04/09 00:04:32;;;;;;;2.25;1.00;;;14.60;57.00;;;;;;5053694;28;20052;-70
2022/04/09 00:06:58;;;;;;;2.25;1.30;;;14.60;60.40;;;;;;5054578;28;20048;-70
2022/04/09 00:09:26;;;;;;;2.42;1.00;;;14.60;60.40;;;;;;5045199;28;20055;-70
2022/04/09 00:11:53;;;;;;;4.35;1.20;;;14.60;60.40;;;;;;5053187;28;20142;-70
2022/04/09 00:14:20;;;;;;;1.65;1.10;;;;;;;;;;5053398;28;20059;-69
2022/04/09 00:16:47;;;;;;;2.45;1.17;;;14.60;60.60;;;;;;5053271;28;20048;-70
2022/04/09 00:19:13;;;;;;;2.08;1.10;;;14.80;60.70;;;;;;5041296;28;20057;-70
2022/04/09 00:21:40;;;;;;;1.70;1.10;;;14.70;56.20;;;;;;5033264;28;20053;-70
2022/04/09 00:24:07;;;;;;;1.73;0.93;;;14.50;60.30;;;;;;5034203;28;20516;-70
2022/04/09 00:26:35;;;;;;;1.10;1.00;;;14.70;60.60;;;;;;5033088;28;20049;-70
2022/04/09 00:29:02;;;;;;;2.20;1.20;;;14.70;60.60;;;;;;5043065;28;20120;-70
2022/04/09 00:31:28;;;;;;;3.55;1.13;;;14.60;57.40;;;;;;5053840;28;20044;-70
2022/04/09 00:33:55;;;;;;;2.90;1.10;;;14.50;60.20;;;;;;5053164;28;20060;-70
2022/04/09 00:36:22;;;;;;;2.20;1.10;;;14.70;60.60;;;;;;5053196;28;20466;-70
2022/04/09 00:38:49;;;;;;;2.10;1.10;;;;;;;;;;5044823;28;20046;-70
2022/04/09 00:41:15;;;;;;;1.70;1.00;;;14.70;60.30;;;;;;5034185;28;20057;-70
2022/04/09 00:43:43;;;;;;;3.10;1.23;;;14.50;60.20;;;;;;5032882;28;20053;-70
2022/04/09 00:46:12;;;;;;;2.15;1.00;;;14.50;60.10;;;;;;5034168;28;20052;-70
2022/04/09 00:48:39;;;;;;;4.75;1.30;;;14.50;56.80;;;;;;5038819;28;20049;-70
2022/04/09 00:51:05;;;;;;;1.88;1.08;;;14.70;60.00;;;;;;5052699;28;20060;-70
2022/04/09 00:53:35;;;;;;;1.92;1.20;;;14.70;60.50;;;;;;5052848;28;20391;-70
2022/04/09 00:56:15;;;;;;;2.28;1.17;;;14.70;60.20;;;;;;5052808;28;20064;-70
2022/04/09 00:58:49;;;;;;;2.15;1.30;;;12.70;52.70;;;;;;5046877;28;20042;-70
2022/04/09 01:01:15;;;;;;;2.22;1.10;;;14.20;60.30;;;;;;5032572;28;20071;-70
2022/04/09 01:03:42;;;;;;;2.33;1.20;;;14.40;60.10;;;;;;5033562;28;20103;-70
2022/04/09 01:06:09;;;;;;;2.28;1.00;;;14.60;60.40;;;;;;5032492;28;20049;-69
2022/04/09 01:08:36;;;;;;;2.33;1.25;;;14.40;59.90;;;;;;5037973;28;20049;-70
2022/04/09 01:11:03;;;;;;;2.53;1.10;;;14.70;60.20;;;;;;5053152;28;20160;-70
2022/04/09 01:13:30;;;;;;;3.15;1.05;;;14.60;56.90;;;;;;5052983;28;20055;-69
2022/04/09 01:15:58;;;;;;;1.98;1.02;;;14.70;60.40;;;;;;5052567;28;20049;-70
2022/04/09 01:18:24;;;;;;;4.20;1.10;;;14.50;60.00;;;;;;5048080;28;20512;-70
2022/04/09 01:20:51;;;;;;;3.80;1.10;;;14.70;60.20;;;;;;5033187;28;20068;-70
2022/04/09 01:23:19;;;;;;;1.67;1.00;;;14.60;60.10;;;;;;5032057;28;20059;-69
2022/04/09 01:25:46;;;;;;;2.90;1.10;;;14.70;56.30;;;;;;5032119;28;20499;-70
2022/04/09 01:28:13;;;;;;;3.00;1.10;;;14.70;60.20;;;;;;5034088;28;20049;-70
2022/04/09 01:30:40;;;;;;;1.75;1.20;;;14.60;60.40;;;;;;5051818;28;20061;-70
2022/04/09 01:33:06;;;;;;;1.70;1.10;;;14.70;60.40;;;;;;5051605;28;20063;-70
2022/04/09 01:35:33;;;;;;;1.80;1.00;;;14.80;60.40;;;;;;5052933;28;20053;-70
2022/04/09 01:38:00;;;;;;;2.03;1.00;;;;;;;;;;5051651;28;20052;-68
2022/04/09 01:40:28;;;;;;;2.05;0.90;;;14.50;60.00;;;;;;5031746;28;20525;-70
2022/04/09 01:42:55;;;;;;;2.83;1.02;;;14.70;60.40;;;;;;5032780;28;20049;-69
2022/04/09 01:45:22;;;;;;;2.10;1.08;;;;;;;;;;5031785;28;20046;-69
2022/04/09 01:47:49;;;;;;;1.65;1.00;;;14.80;60.20;;;;;;5033044;28;20099;-70
2022/04/09 01:50:16;;;;;;;1.50;0.90;;;14.60;60.00;;;;;;5051271;28;20059;-70
2022/04/09 01:52:42;;;;;;;2.67;1.00;;;14.60;60.10;;;;;;5051635;28;20387;-70
2022/04/09 01:55:09;;;;;;;1.85;0.95;;;14.70;60.10;;;;;;5052628;28;20052;-70
2022/04/09 01:57:37;;;;;;;2.45;0.85;;;14.70;60.40;;;;;;5051095;28;20057;-70
2022/04/09 02:00:05;;;;;;;2.63;1.15;;;14.70;60.10;;;;;;5035580;28;20059;-70
2022/04/09 02:02:32;;;;;;;2.35;1.00;;;14.60;60.40;;;;;;5033650;28;20088;-70
2022/04/09 02:04:59;;;;;;;2.22;1.10;;;14.60;54.40;;;;;;5031717;28;20045;-69
2022/04/09 02:07:27;;;;;;;1.58;1.00;;;14.70;60.40;;;;;;5031156;28;20053;-70
2022/04/09 02:09:54;;;;;;;2.28;1.00;;;14.50;60.00;;;;;;5046841;28;20414;-70
2022/04/09 02:12:20;;;;;;;1.92;1.10;;;14.60;60.40;;;;;;5050965;28;20048;-70
2022/04/09 02:14:48;;;;;;;2.08;1.00;;;14.40;54.10;;;;;;5051291;28;20056;-69
2022/04/09 02:17:15;;;;;;;3.08;1.13;;;;;;;;;;5051359;28;20057;-69
2022/04/09 02:19:42;;;;;;;2.38;1.10;;;14.50;60.00;;;;;;5038727;28;20399;-70
2022/04/09 02:22:09;;;;;;;2.75;1.23;;;14.60;60.10;;;;;;5030929;28;20053;-70
2022/04/09 02:24:35;;;;;;;1.73;1.00;;;14.60;57.20;;;;;;5030623;28;20057;-70
2022/04/09 02:27:02;;;;;;;2.78;1.00;;;14.60;60.00;;;;;;5032153;28;20132;-70
2022/04/09 02:29:29;;;;;;;1.92;1.00;;;14.60;60.20;;;;;;5042658;28;20051;-70
2022/04/09 02:31:58;;;;;;;1.40;1.00;;;14.50;52.90;;;;;;5050829;28;20063;-69
2022/04/09 02:34:25;;;;;;;2.08;1.00;;;14.40;60.20;;;;;;5050778;28;20057;-70
2022/04/09 02:36:52;;;;;;;2.40;1.10;;;14.60;57.50;;;;;;5051084;28;20056;-70
2022/04/09 02:39:21;;;;;;;2.15;0.95;;;14.70;60.30;;;;;;5041301;28;20513;-70
2022/04/09 02:41:48;;;;;;;1.95;1.10;;;14.20;59.40;;;;;;5031925;28;20518;-70
2022/04/09 02:44:15;;;;;;;2.55;0.95;;;14.60;60.40;;;;;;5032141;28;20075;-70
2022/04/09 02:46:42;;;;;;;1.77;0.70;;;;;;;;;;5030953;28;20056;-68
2022/04/09 02:49:11;;;;;;;2.13;1.08;;;14.50;60.00;;;;;;5039696;28;20049;-70
2022/04/09 02:51:38;;;;;;;3.10;1.33;;;;;;;;;;5050770;28;20114;-69
2022/04/09 02:54:05;;;;;;;2.08;1.00;;;14.60;60.00;;;;;;5050873;28;20059;-70
2022/04/09 02:56:31;;;;;;;2.78;1.10;;;14.60;60.00;;;;;;5051530;28;20063;-70
2022/04/09 02:58:58;;;;;;;1.70;0.95;;;14.60;60.40;;;;;;5044541;28;20045;-70
2022/04/09 03:01:27;;;;;;;1.35;0.93;;;14.60;60.10;;;;;;5031637;28;20046;-70
2022/04/09 03:03:54;;;;;;;2.05;1.00;;;14.50;60.00;;;;;;5030704;28;20059;-70
2022/04/09 03:06:22;;;;;;;2.40;1.00;;;14.40;57.90;;;;;;5031632;28;20483;-70
2022/04/09 03:08:48;;;;;;;1.65;0.90;;;14.50;56.60;;;;;;5036193;28;20055;-70
2022/04/09 03:11:15;;;;;;;1.90;1.00;;;14.20;59.80;;;;;;5051428;28;20063;-70
2022/04/09 03:13:42;;;;;;;2.60;0.90;;;14.50;60.20;;;;;;5050584;28;20053;-70
2022/04/09 03:16:09;;;;;;;1.70;0.90;;;;;;;;;;5050446;28;20482;-69
2022/04/09 03:18:35;;;;;;;1.17;0.98;;;14.60;60.30;;;;;;5035206;28;20060;-69
2022/04/09 03:21:02;;;;;;;2.25;1.10;;;14.50;60.20;;;;;;5030430;28;20430;-70
2022/04/09 03:23:30;;;;;;;1.80;0.88;;;14.50;56.60;;;;;;5030085;28;20064;-70
2022/04/09 03:25:57;;;;;;;2.95;1.05;;;14.70;57.00;;;;;;5030615;28;20063;-70
2022/04/09 03:28:24;;;;;;;1.23;0.80;;;14.60;60.30;;;;;;5044439;28;20049;-70
2022/04/09 03:30:51;;;;;;;1.38;0.93;;;;;;;;;;5050348;28;20053;-70
2022/04/09 03:33:18;;;;;;;1.60;0.80;;;14.30;60.10;;;;;;5051315;28;20052;-70
2022/04/09 03:35:47;;;;;;;1.30;0.95;;;;;;;;;;5052097;28;20508;-69
2022/04/09 03:38:14;;;;;;;1.65;0.75;;;14.50;60.00;;;;;;5042012;28;20449;-70
2022/04/09 03:40:42;;;;;;;1.92;0.93;;;14.50;52.80;;;;;;5034225;28;20538;-70
2022/04/09 03:43:09;;;;;;;1.58;0.80;;;;;;;;;;5034162;28;20053;-70
2022/04/09 03:45:36;;;;;;;1.38;0.90;;;14.60;60.20;;;;;;5034127;28;20053;-70
2022/04/09 03:48:03;;;;;;;1.77;0.95;;;;;;;;;;5044455;28;20387;-69
2022/04/09 03:50:30;;;;;;;2.75;0.90;;;14.50;60.20;;;;;;5054953;28;20057;-70
2022/04/09 03:52:57;;;;;;;1.75;0.80;;;14.60;60.30;;;;;;5054022;28;20063;-70
2022/04/09 03:55:25;;;;;;;1.40;0.90;;;;;;;;;;5055017;28;20049;-69
2022/04/09 03:57:53;;;;;;;2.05;0.95;;;14.50;53.00;;;;;;5045428;28;20068;-69
2022/04/09 04:00:21;;;;;;;1.95;0.82;;;;;;;;;;5033659;28;20057;-69
2022/04/09 04:02:48;;;;;;;2.35;0.90;;;;;;;;;;5033910;28;20054;-69
2022/04/09 04:05:14;;;;;;;3.00;1.00;;;14.50;60.30;;;;;;5033558;28;20058;-70
2022/04/09 04:07:43;;;;;;;2.13;0.98;;;14.40;60.00;;;;;;5040992;28;20055;-70
2022/04/09 04:10:10;;;;;;;1.33;0.75;;;14.40;54.80;;;;;;5054366;28;20045;-70
2022/04/09 04:12:37;;;;;;;1.98;0.82;;;14.10;60.10;;;;;;5053753;28;20132;-70
2022/04/09 04:15:06;;;;;;;1.67;0.82;;;14.40;60.00;;;;;;5053976;28;20045;-69
2022/04/09 04:17:39;;;;;;;1.67;1.00;;;14.40;60.20;;;;;;5034270;28;20391;-70
2022/04/09 04:20:07;;;;;;;2.00;0.90;;;15.00;60.30;;;;;;5033274;28;20053;-70
2022/04/09 04:22:34;;;;;;;1.70;0.80;;;14.50;60.30;;;;;;5033447;28;20084;-70
2022/04/09 04:25:01;;;;;;;1.65;0.90;;;;;;;;;;5033193;28;20049;-69
2022/04/09 04:27:27;;;;;;;1.40;0.90;;;14.70;60.40;;;;;;5051786;28;20191;-70
2022/04/09 04:29:54;;;;;;;2.65;0.80;;;;;;;;;;5053993;28;20131;-70
2022/04/09 04:32:22;;;;;;;0.90;0.80;;;14.30;60.00;;;;;;5053995;28;20053;-70
2022/04/09 04:34:49;;;;;;;1.40;0.80;;;14.40;59.90;;;;;;5053370;28;20066;-70
2022/04/09 04:37:16;;;;;;;1.60;0.90;;;14.50;60.10;;;;;;5035537;28;20050;-70
2022/04/09 04:39:43;;;;;;;1.52;0.80;;;;;;;;;;5033768;28;20422;-69
2022/04/09 04:42:10;;;;;;;1.77;0.82;;;14.50;59.90;;;;;;5032962;28;20064;-70
2022/04/09 04:44:36;;;;;;;2.17;0.80;;;14.40;60.10;;;;;;5033380;28;20513;-70
2022/04/09 04:47:03;;;;;;;2.15;0.75;;;14.40;60.20;;;;;;5048467;28;20089;-69
2022/04/09 04:49:32;;;;;;;1.77;1.08;;;14.60;60.30;;;;;;5052900;28;20055;-70
2022/04/09 04:51:59;;;;;;;1.10;0.90;;;14.50;59.90;;;;;;5052625;28;20092;-70
2022/04/09 04:54:26;;;;;;;1.83;0.90;;;14.50;60.00;;;;;;5053700;28;20053;-70
2022/04/09 04:56:53;;;;;;;1.65;0.98;;;;;;;;;;5040181;28;20045;-70
2022/04/09 04:59:20;;;;;;;1.58;0.80;;;14.40;59.90;;;;;;5032828;28;20056;-70
2022/04/09 05:01:46;;;;;;;1.58;0.90;;;14.50;60.00;;;;;;5033396;28;20045;-70
2022/04/09 05:04:14;;;;;;;0.88;0.70;;;;;;;;;;5032839;28;20601;-68
2022/04/09 05:06:43;;;;;;;1.85;0.80;;;14.50;60.20;;;;;;5045349;28;20049;-70
2022/04/09 05:09:09;;;;;;;2.72;0.90;;;14.10;55.10;;;;;;5052561;28;20060;-70
2022/04/09 05:11:36;;;;;;;1.75;0.82;;;14.40;60.00;;;;;;5052235;28;20061;-69
2022/04/09 05:14:03;;;;;;;0.93;0.70;;;14.40;59.70;;;;;;5053617;28;20053;-69
2022/04/09 05:16:30;;;;;;;2.38;1.10;;;14.40;59.80;;;;;;5043322;28;20049;-70
2022/04/09 05:18:57;;;;;;;1.73;0.90;;;14.50;60.00;;;;;;5033455;28;20414;-70
2022/04/09 05:21:24;;;;;;;1.75;0.80;;;;;;;;;;5032885;28;20052;-68
2022/04/09 05:23:52;;;;;;;1.45;1.00;;;14.20;60.00;;;;;;5032344;28;20076;-70
2022/04/09 05:26:18;;;;;;;1.55;0.80;;;14.40;60.00;;;;;;5040209;28;20500;-70
2022/04/09 05:28:45;;;;;;;1.20;0.80;;;14.40;60.10;;;;;;5053066;28;20048;-68
2022/04/09 05:31:13;;;;;;;2.13;0.90;;;;;;;;;;5051845;28;20059;-68
2022/04/09 05:33:40;;;;;;;1.58;0.80;;;14.40;60.20;;;;;;5051878;28;20061;-68
2022/04/09 05:36:07;;;;;;;1.25;0.80;;;14.50;60.00;;;;;;5044939;28;20056;-68
2022/04/09 05:38:34;;;;;;;2.08;0.80;;;;;;;;;;5033000;28;20490;-68
2022/04/09 05:41:02;;;;;;;1.35;0.70;;;14.50;59.70;;;;;;5032798;28;20049;-70
2022/04/09 05:43:29;;;;;;;1.88;0.80;;;14.20;59.90;;;;;;5033068;28;20053;-70
2022/04/09 05:45:57;;;;;;;1.00;0.68;;;;;;;;;;5036578;28;20056;-70
2022/04/09 05:48:24;;;;;;;1.35;0.70;;;14.50;59.80;;;;;;5052675;28;20118;-69
2022/04/09 05:50:51;;;;;;;0.98;0.70;;;14.40;53.60;;;;;;5052546;28;20478;-70
2022/04/09 05:53:17;;;;;;;1.30;0.85;;;14.60;60.00;;;;;;5052555;28;20049;-70
2022/04/09 05:55:44;;;;;;;1.52;0.80;;;14.50;59.70;;;;;;5049830;28;20054;-70
2022/04/09 05:58:12;;;;;;;1.60;0.95;;;14.50;54.10;;;;;;5032111;28;20398;-70
2022/04/09 06:00:39;;;;;;;1.55;0.85;;;;;;;;;;5031053;28;20063;-69
2022/04/09 06:03:06;;;;;;;1.60;0.73;;;14.50;59.70;;;;;;5031497;28;20088;-67
2022/04/09 06:05:34;;;;;;;1.75;0.82;;;14.50;55.30;;;;;;5032677;28;20065;-68
2022/04/09 06:08:01;;;;;;;2.38;1.10;;;;;;;;;;5052466;28;20040;-68
2022/04/09 06:10:28;;;;;;;1.23;0.90;;;14.50;59.70;;;;;;5052512;28;20048;-68
2022/04/09 06:12:55;;;;;;;1.35;0.85;;;14.50;59.70;;;;;;5052234;28;20044;-68
2022/04/09 06:15:23;;;;;;;1.48;0.80;;;14.50;59.70;;;;;;5052362;28;20055;-68
2022/04/09 06:17:50;;;;;;;1.95;0.90;;;14.60;60.00;;;;;;5051614;28;20494;-68
2022/04/09 06:20:17;;;;;;;1.42;0.88;;;;;;;;;;5050720;28;20091;-69
2022/04/09 06:22:44;;;;;;;1.75;0.90;;;14.20;59.60;;;;;;5052450;28;20055;-68
2022/04/09 06:25:10;;;;;;;1.63;1.00;;;14.60;59.60;;;;;;5052132;28;20502;-68
2022/04/09 06:27:41;;;;;;;1.58;1.02;;;14.80;52.70;;;;;;5033582;28;20053;-69
2022/04/09 06:30:09;;;;;;;1.63;0.80;;;14.50;59.70;;;;;;5031577;28;20049;-68
2022/04/09 06:32:38;;;;;;;1.60;0.90;;;14.90;59.70;;;;;;5032345;28;20053;-68
2022/04/09 06:35:06;;;;;;;1.20;0.80;;;14.40;59.50;;;;;;5032246;28;20061;-68
2022/04/09 06:37:33;;;;;;;1.00;0.73;;;14.50;59.60;;;;;;5048100;28;20045;-68
2022/04/09 06:40:00;;;;;;;1.55;0.77;;;14.50;59.80;;;;;;5050102;28;20083;-68
2022/04/09 06:42:27;;;;;;;1.63;0.82;;;14.60;59.60;;;;;;5051868;28;20041;-68
2022/04/09 06:44:54;;;;;;;1.33;0.90;;;;;;;;;;5050593;28;20057;-69
2022/04/09 06:47:21;;;;;;;1.17;0.75;;;14.70;59.90;;;;;;5037004;28;20495;-68
2022/04/09 06:49:49;;;;;;;1.42;0.90;;;14.70;52.40;;;;;;5032133;28;20049;-68
2022/04/09 06:52:16;;;;;;;1.23;0.80;;;;;;;;;;5031907;28;20052;-68
2022/04/09 06:54:43;;;;;;;1.65;0.90;;;14.80;59.30;;;;;;5031080;28;20045;-68
2022/04/09 06:57:10;;;;;;;1.05;0.80;;;14.70;59.50;;;;;;5044402;28;20044;-68
2022/04/09 06:59:37;;;;;;;1.83;0.70;;;15.00;59.20;;;;;;5050588;28;20470;-68
2022/04/09 07:02:04;;;;;;;0.90;0.63;;;14.30;59.20;;;;;;5051898;28;20059;-68
2022/04/09 07:04:31;;;;;;;1.42;0.95;;;14.90;59.50;;;;;;5048325;28;20051;-68
2022/04/09 07:06:59;;;;;;;0.80;0.70;;;14.90;59.50;;;;;;5032288;28;20128;-67
2022/04/09 07:09:25;;;;;;;0.90;0.70;;;15.40;59.50;;;;;;5031384;28;20057;-68
2022/04/09 07:11:52;;;;;;;1.15;0.68;;;14.40;59.30;;;;;;5035302;28;20053;-68
2022/04/09 07:14:19;;;;;;;1.23;0.88;;;15.00;59.30;;;;;;5035774;28;20423;-68
2022/04/09 07:16:46;;;;;;;1.35;0.70;;;15.90;59.90;;;;;;5042898;28;20129;-68
2022/04/09 07:19:13;;;;;;;1.05;0.70;;;15.20;59.10;;;;;;5054276;28;20100;-68
2022/04/09 07:21:40;;;;;;;1.98;0.70;;;15.20;59.00;;;;;;5051582;28;20061;-68
2022/04/09 07:24:09;;;;;;;1.67;0.80;;;15.30;51.90;;;;;;5044970;28;20053;-69
2022/04/09 07:26:35;;;;;;;1.50;0.80;;;15.50;58.90;;;;;;5027498;28;20121;-68
2022/04/09 07:29:02;;;;;;;0.80;0.60;;;15.60;58.90;;;;;;5042846;28;20045;-68
2022/04/09 07:31:29;;;;;;;1.48;0.80;;;15.50;58.70;;;;;;5045846;28;20124;-69
2022/04/09 07:33:56;;;;;;;2.65;0.90;;;;;;;;;;5043438;28;20496;-68
2022/04/09 07:36:23;;;;;;;1.30;0.73;;;15.40;58.40;;;;;;5042754;28;20056;-68
2022/04/09 07:38:49;;;;;;;1.30;0.80;;;14.90;54.30;;;;;;5034220;28;20387;-68
2022/04/09 07:41:17;;;;;;;1.85;0.73;;;16.20;58.80;;;;;;5033977;28;20057;-68
2022/04/09 07:43:44;;;;;;;1.13;0.70;;;15.70;58.70;;;;;;5046325;28;20055;-68
2022/04/09 07:46:11;;;;;;;1.15;1.00;;;15.70;58.50;;;;;;5035152;28;20045;-68
2022/04/09 07:48:38;;;;;;;2.85;0.80;;;;;;;;;;5041619;28;20486;-69
2022/04/09 07:51:04;;;;;;;1.85;0.90;;;15.00;58.10;;;;;;5053758;28;20060;-68
2022/04/09 07:53:31;;;;;;;0.90;0.75;;;15.50;58.30;;;;;;5054872;28;20049;-68
2022/04/09 07:55:58;;;;;;;0.70;0.60;;;;;;;;;;5053689;28;20048;-68
2022/04/09 07:58:26;;;;;;;1.55;0.80;;;15.60;58.50;;;;;;5053891;28;20060;-68
2022/04/09 08:00:53;;;;;;;1.17;0.90;;;15.90;58.40;;;;;;5047326;28;20493;-68
2022/04/09 08:03:20;;;;;;;2.45;0.90;;;;;;;;;;5038738;28;20049;-70
2022/04/09 08:05:47;;;;;;;2.25;0.88;;;15.60;58.50;;;;;;5042661;28;20413;-68
2022/04/09 08:08:13;;;;;;;1.67;0.70;;;15.80;58.50;;;;;;5045051;28;20044;-68
2022/04/09 08:10:40;;;;;;;2.33;0.98;;;;;;;;;;5042916;28;20057;-69
2022/04/09 08:13:07;;;;;;;1.55;0.77;;;15.80;58.30;;;;;;5044671;28;20045;-68
2022/04/09 08:15:35;;;;;;;2.25;1.10;;;15.80;58.60;;;;;;5042352;28;20567;-68
2022/04/09 08:18:04;;;;;;;1.38;0.80;;;16.00;58.40;;;;;;5043213;28;20614;-68
2022/04/09 08:20:31;;;;;;;1.52;0.80;;;15.60;55.80;;;;;;5044012;28;20059;-68
2022/04/09 08:22:57;;;;;;;2.25;0.82;;;15.90;58.20;;;;;;5053326;28;20053;-68
2022/04/09 08:25:24;;;;;;;1.95;1.00;;;;;;;;;;5054657;28;20071;-69
2022/04/09 08:27:52;;;;;;;1.75;0.70;;;16.00;58.40;;;;;;5054257;28;20053;-68
2022/04/09 08:30:19;;;;;;;1.73;1.05;;;16.10;58.40;;;;;;5046654;28;20049;-68
2022/04/09 08:32:49;;;;;;;1.27;0.70;;;16.20;58.10;;;;;;5038157;28;20508;-68
2022/04/09 08:35:16;;;;;;;1.38;0.90;;;15.10;57.80;;;;;;5043498;28;20402;-68
2022/04/09 08:37:42;;;;;;;1.23;0.60;;;16.20;58.10;;;;;;5044940;28;20045;-69
2022/04/09 08:40:10;;;;;;;1.30;0.80;;;16.30;57.40;;;;;;5045291;28;20053;-68
2022/04/09 08:42:37;;;;;;;2.20;0.80;;;16.20;57.80;;;;;;5042862;28;20051;-68
2022/04/09 08:45:05;;;;;;;1.73;0.98;;;16.10;57.80;;;;;;5042313;28;20061;-68
2022/04/09 08:47:33;;;;;;;1.08;0.70;;;15.70;57.50;;;;;;5045147;28;20057;-68
2022/04/09 08:50:01;;;;;;;2.67;0.90;;;16.50;57.80;;;;;;5048816;28;20053;-67
2022/04/09 08:52:28;;;;;;;1.23;0.70;;;16.80;57.80;;;;;;5043171;28;20056;-68
2022/04/09 08:54:54;;;;;;;1.35;0.88;;;16.40;57.70;;;;;;5041371;28;20493;-68
2022/04/09 08:57:21;;;;;;;1.55;0.85;;;16.40;58.00;;;;;;5025987;28;20049;-68
2022/04/09 08:59:48;;;;;;;2.17;0.90;;;16.10;57.50;;;;;;5042843;28;20094;-68
2022/04/09 09:02:14;;;;;;;0.77;0.63;;;16.50;57.80;;;;;;5042696;28;20055;-68
2022/04/09 09:04:42;;;;;;;1.30;0.80;;;;;;;;;;5041976;28;20478;-68
2022/04/09 09:07:21;;;;;;;1.10;0.73;;;16.20;57.40;;;;;;5042693;28;20053;-68
2022/04/09 09:09:48;;;;;;;3.63;0.93;;;16.20;51.40;;;;;;5043601;28;20052;-68
2022/04/09 09:12:27;;;;;;;1.50;0.80;;;16.20;57.40;;;;;;5041965;28;20052;-68
2022/04/09 09:14:53;;;;;;;0.77;0.75;;;15.90;57.30;;;;;;5042229;28;20052;-69
2022/04/09 09:17:29;;;;;;;0.73;0.55;;;16.30;57.60;;;;;;5043520;28;20071;-68
2022/04/09 09:19:56;;;;;;;1.30;0.73;;;;;;;;;;5033379;28;20041;-68
2022/04/09 09:22:35;;;;;;;1.30;0.80;;;16.20;58.00;;;;;;5032174;28;20053;-68
2022/04/09 09:25:03;;;;;;;1.20;0.77;;;15.30;57.30;;;;;;5033876;28;20055;-68
2022/04/09 09:27:29;;;;;;;0.90;0.60;;;16.10;58.00;;;;;;5036174;28;20053;-68
2022/04/09 09:29:56;;;;;;;0.80;0.73;;;16.20;52.00;;;;;;5033532;28;20049;-68
2022/04/09 09:32:25;;;;;;;1.45;0.80;;;16.10;57.90;;;;;;5043192;28;20062;-68
2022/04/09 09:34:53;;;;;;;1.45;0.50;;;16.30;57.90;;;;;;5032914;28;20052;-69
2022/04/09 09:37:25;;;;;;;2.55;0.90;;;16.20;50.90;;;;;;5033109;28;20053;-69
2022/04/09 09:39:53;;;;;;;0.60;0.60;;;15.30;57.50;;;;;;5032926;28;20045;-68
2022/04/09 09:42:20;;;;;;;0.70;0.70;;;16.30;57.70;;;;;;5033175;28;20060;-68
2022/04/09 09:44:47;;;;;;;1.63;0.80;;;;;;;;;;5039901;28;20051;-69
2022/04/09 09:47:14;;;;;;;1.08;0.70;;;16.20;58.00;;;;;;5043452;28;20041;-70
2022/04/09 09:49:53;;;;;;;1.00;0.70;;;15.80;57.50;;;;;;5040103;28;20046;-69
2022/04/09 09:52:29;;;;;;;1.35;0.80;;;15.50;57.40;;;;;;5041141;28;20091;-70
2022/04/09 09:55:00;;;;;;;1.52;0.80;;;16.00;57.90;;;;;;5041483;28;20499;-70
2022/04/09 09:57:28;;;;;;;1.40;0.82;;;16.10;51.10;;;;;;5033457;28;20057;-69
2022/04/09 09:59:55;;;;;;;0.93;0.80;;;15.60;58.00;;;;;;5042108;28;20045;-70
2022/04/09 10:02:23;;;;;;;1.52;0.88;;;16.00;58.10;;;;;;5033275;28;20063;-70
2022/04/09 10:04:49;;;;;;;2.85;1.05;;;16.10;54.70;;;;;;5031516;28;20132;-70
2022/04/09 10:07:16;;;;;;;2.13;0.80;;;16.20;57.90;;;;;;5041124;28;20135;-70
2022/04/09 10:09:45;;;;;;;2.45;1.00;;;16.00;57.80;;;;;;5040452;28;20473;-66
2022/04/09 10:12:13;;;;;;;1.38;0.80;;;17.10;55.50;;;;;;5040799;28;20053;-70
2022/04/09 10:14:40;;;;;;;1.48;0.70;;;16.50;58.10;;;;;;5043180;28;20048;-70
2022/04/09 10:17:07;;;;;;;1.35;0.90;;;16.20;57.90;;;;;;5040698;28;20056;-70
2022/04/09 10:19:34;;;;;;;1.35;0.82;;;16.20;50.80;;;;;;5042525;28;20125;-67
2022/04/09 10:22:01;;;;;;;0.73;0.60;;;16.60;57.90;;;;;;5042585;28;20128;-70
2022/04/09 10:24:28;;;;;;;1.33;0.80;;;16.40;57.60;;;;;;5045451;28;20433;-70
2022/04/09 10:26:58;;;;;;;2.58;0.80;;;16.50;57.70;;;;;;5038742;28;20056;-70
2022/04/09 10:29:25;;;;;;;1.40;0.77;;;16.40;57.80;;;;;;5044225;28;20045;-69
2022/04/09 10:31:52;;;;;;;1.88;0.80;;;;;;;;;;5042618;28;20045;-69
2022/04/09 10:34:20;;;;;;;1.33;0.80;;;16.40;57.40;;;;;;5050693;28;20064;-70
2022/04/09 10:37:05;;;;;;;2.30;1.00;;;16.20;57.40;;;;;;5046412;28;20037;-70
2022/04/09 10:39:45;;;;;;;1.75;0.80;;;16.30;57.50;;;;;;5035432;28;20081;-70
2022/04/09 10:42:49;;;;;;;2.35;0.95;;;16.20;50.70;;;;;;5037013;28;20092;-69
2022/04/09 10:45:16;;;;;;;2.15;0.90;;;16.20;58.00;;;;;;5032641;28;20426;-70
2022/04/09 10:48:05;;;;;;;1.30;0.80;;;16.20;58.00;;;;;;5033634;28;20053;-70
2022/04/09 10:50:52;;;;;;;1.02;0.70;;;16.00;58.00;;;;;;5040226;28;20045;-69
2022/04/09 10:53:20;;;;;;;1.42;0.80;;;16.10;58.10;;;;;;5040737;28;20048;-68
2022/04/09 10:56:09;;;;;;;1.70;0.95;;;16.80;55.60;;;;;;5040827;28;20047;-68
2022/04/09 10:58:53;;;;;;;1.75;0.90;;;16.20;58.20;;;;;;5037814;28;20046;-68
2022/04/09 11:01:53;;;;;;;1.42;0.88;;;15.60;57.30;;;;;;5031262;28;20068;-68
2022/04/09 11:04:42;;;;;;;1.92;0.98;;;16.00;57.80;;;;;;5031704;28;20136;-68
2022/04/09 11:07:11;;;;;;;0.85;0.70;;;16.20;57.60;;;;;;5047930;28;20088;-68
2022/04/09 11:09:55;;;;;;;1.17;0.80;;;16.20;58.00;;;;;;5036340;28;20046;-68
2022/04/09 11:12:24;;;;;;;0.95;0.82;;;16.40;57.70;;;;;;5036652;28;20080;-68
2022/04/09 11:14:55;;;;;;;1.08;0.77;;;16.30;57.80;;;;;;5050388;28;20114;-68
2022/04/09 11:17:26;;;;;;;3.72;1.00;;;16.30;50.80;;;;;;5038020;28;20096;-68
2022/04/09 11:19:53;;;;;;;1.70;0.90;;;16.30;57.70;;;;;;5031346;28;20084;-69
2022/04/09 11:22:20;;;;;;;2.08;1.00;;;16.20;57.70;;;;;;5035457;28;20063;-68
2022/04/09 11:24:47;;;;;;;1.33;0.85;;;;;;;;;;5029985;28;20064;-69
2022/04/09 11:27:14;;;;;;;1.23;0.80;;;16.70;57.60;;;;;;5042608;28;20060;-68
2022/04/09 11:29:41;;;;;;;2.00;1.10;;;16.40;57.50;;;;;;5039903;28;20059;-68
2022/04/09 11:32:18;;;;;;;1.70;0.80;;;16.30;57.50;;;;;;5047010;28;20051;-68
2022/04/09 11:34:52;;;;;;;2.00;0.88;;;16.30;50.80;;;;;;5030965;28;20053;-69
2022/04/09 11:37:20;;;;;;;1.63;0.80;;;;;;;;;;5051709;28;20049;-68
2022/04/09 11:39:48;;;;;;;1.67;0.80;;;16.40;57.80;;;;;;5049859;28;20481;-68
2022/04/09 11:42:15;;;;;;;0.82;0.80;;;16.30;57.80;;;;;;5045290;28;20060;-68
2022/04/09 11:44:41;;;;;;;1.63;0.77;;;15.30;56.90;;;;;;5038299;28;20120;-68
2022/04/09 11:47:11;;;;;;;1.42;0.82;;;16.30;56.30;;;;;;5051210;28;20139;-68
2022/04/09 11:49:38;;;;;;;1.00;0.70;;;16.50;57.80;;;;;;5047118;28;20053;-68
2022/04/09 11:52:05;;;;;;;1.75;0.80;;;16.20;57.50;;;;;;5047275;28;20071;-68
2022/04/09 11:54:32;;;;;;;1.33;0.80;;;;;;;;;;5036358;28;20051;-69
2022/04/09 11:56:59;;;;;;;0.90;0.75;;;15.40;57.00;;;;;;5043348;28;20482;-67
2022/04/09 11:59:26;;;;;;;1.73;0.73;;;15.40;57.30;;;;;;5043566;28;20390;-68
2022/04/09 12:01:53;;;;;;;2.35;1.00;;;15.30;57.00;;;;;;5044289;28;20055;-68
2022/04/09 12:04:21;;;;;;;1.90;1.00;;;15.80;57.40;;;;;;5052108;28;20049;-68
2022/04/09 12:06:48;;;;;;;0.90;0.70;;;16.60;57.90;;;;;;5044181;28;20060;-67
2022/04/09 12:09:15;;;;;;;1.10;0.70;;;;;;;;;;5037989;28;20060;-68
2022/04/09 12:11:43;;;;;;;0.77;0.65;;;16.00;57.20;;;;;;5041116;28;20057;-67
2022/04/09 12:14:10;;;;;;;1.23;0.77;;;15.50;56.90;;;;;;5041535;28;20102;-68
2022/04/09 12:16:40;;;;;;;1.83;0.80;;;15.90;50.50;;;;;;5046871;28;20405;-68
2022/04/09 12:19:07;;;;;;;1.42;0.80;;;;;;;;;;5043334;28;20070;-69
2022/04/09 12:21:35;;;;;;;1.40;0.80;;;15.50;56.80;;;;;;5040995;28;20045;-68
2022/04/09 12:24:03;;;;;;;1.50;0.80;;;16.10;57.60;;;;;;5046320;28;20486;-68
2022/04/09 12:26:30;;;;;;;1.45;0.80;;;16.00;57.60;;;;;;5010405;28;20049;-67
2022/04/09 12:29:07;;;;;;;1.15;0.80;;;16.00;57.40;;;;;;5037327;28;20053;-68
2022/04/09 12:31:34;;;;;;;1.55;0.95;;;16.00;57.50;;;;;;5053643;28;20052;-67
2022/04/09 12:34:01;;;;;;;1.70;0.80;;;16.00;57.30;;;;;;5047617;28;20049;-68
2022/04/09 12:36:28;;;;;;;2.05;0.70;;;16.00;57.20;;;;;;5039175;28;20051;-67
2022/04/09 12:38:56;;;;;;;1.17;1.05;;;15.40;57.00;;;;;;5052331;28;20490;-68
2022/04/09 12:41:22;;;;;;;1.27;0.80;;;16.00;57.40;;;;;;5034084;28;20049;-68
2022/04/09 12:43:52;;;;;;;1.35;0.80;;;;;;;;;;5035536;28;20511;-68
2022/04/09 12:46:19;;;;;;;2.10;1.00;;;16.00;57.50;;;;;;5045550;28;20084;-68
2022/04/09 12:48:46;;;;;;;1.52;0.80;;;15.80;57.70;;;;;;5033922;28;20051;-68
2022/04/09 12:51:14;;;;;;;1.27;0.80;;;15.90;57.50;;;;;;5043499;28;20072;-69
2022/04/09 12:53:41;;;;;;;1.80;0.80;;;15.90;57.80;;;;;;5042063;28;20474;-68
2022/04/09 12:56:10;;;;;;;1.08;0.73;;;16.00;52.60;;;;;;5041438;28;20504;-68
2022/04/09 12:58:37;;;;;;;1.33;0.98;;;15.80;58.10;;;;;;5047872;28;20044;-68
2022/04/09 13:01:04;;;;;;;0.93;0.70;;;15.70;57.80;;;;;;5048326;28;20064;-68
2022/04/09 13:03:30;;;;;;;1.25;0.57;;;15.40;57.40;;;;;;5039606;28;20053;-68
2022/04/09 13:05:57;;;;;;;1.42;0.82;;;16.00;57.80;;;;;;5042372;28;20089;-68